Willard, New Mexico
Current Conditions -  °F | °C
As of 3:55 PM on Monday 24 Nov 2014 (Local Time) from K0E0 Reporting Station
Scattered Clouds Scattered Clouds  
Wind Chill: 28°   Ceiling: Unl
Heat Index: 39°   Visibility: 10mi
Dew Point:   Wind: 25mph
Humidity: 25%   Direction: 300°WNW
Pressure: 30.09"   Gusts: 30mph
Location:  34.6°N, 106.03°W
Report Text: K0E0 242255Z AUTO 30022G26KT 10SM SCT120 04/M14 A3009 RMK AO2 T00401145
Loading
Personal Weather Stations






























Interactive Weather Map New forecast layout! Learn more

10-Day Weather Forecast

Advertisements
Track Severe Weather on mobile